Time;durP1;ratioP1;P1;durP2;ratioP2;P2;SDS_P1;SDS_P2;PMS_P1;PMS_P2;Temp;Humidity;BMP_temperature;BMP_pressure;BME280_temperature;BME280_humidity;BME280_pressure;Samples;Min_cycle;Max_cycle;Signal;HPM_P1;HPM_P2
2022/12/22 18:19:24;;;;;;;23.77;13.43;;;;;;;6.72;100.00;99385.23;5214465;54;46906;-70
2022/12/22 18:24:30;;;;;;;38.33;20.57;;;;;;;6.72;100.00;99380.45;5015728;56;1136678;-67
2022/12/22 18:29:36;;;;;;;18.93;12.43;;;;;;;6.75;100.00;99381.50;5050784;56;1141011;-68
2022/12/22 18:34:43;;;;;;;18.27;12.00;;;;;;;6.78;100.00;99378.16;5048319;56;1141209;-73
2022/12/22 18:39:49;;;;;;;16.47;10.13;;;;;;;6.81;100.00;99388.91;5010897;57;1141277;-73
2022/12/22 18:44:54;;;;;;;15.33;10.20;;;;;;;6.83;100.00;99391.77;5050415;56;1141129;-72
2022/12/22 18:50:03;;;;;;;13.70;9.43;;;;;;;6.85;100.00;99396.43;5072275;56;1140886;-71
2022/12/22 18:55:21;;;;;;;14.15;9.45;;;;;;;6.86;100.00;99400.73;5063905;56;1138754;-74
2022/12/22 19:00:31;;;;;;;15.03;10.33;;;;;;;6.86;100.00;99404.67;5029382;56;1138753;-72
2022/12/22 19:05:39;;;;;;;13.60;8.97;;;;;;;6.86;100.00;99407.30;5034473;56;1141130;-77
2022/12/22 19:10:51;;;;;;;16.87;11.43;;;;;;;6.87;100.00;99418.66;5036733;56;1138930;-74
2022/12/22 19:15:58;;;;;;;11.73;8.20;;;;;;;6.86;100.00;99422.23;5059608;55;1140870;-71
2022/12/22 19:21:06;;;;;;;18.20;12.20;;;;;;;6.84;100.00;99421.04;5074029;56;1138861;-70
2022/12/22 19:26:25;;;;;;;17.60;12.05;;;;;;;6.84;100.00;99416.27;5057107;56;1141002;-76
2022/12/22 19:31:34;;;;;;;21.03;13.53;;;;;;;6.81;100.00;99430.48;5078073;56;1140867;-71
2022/12/22 19:36:40;;;;;;;20.40;13.63;;;;;;;6.77;100.00;99426.89;5068259;56;1140884;-71
2022/12/22 19:41:55;;;;;;;18.90;13.30;;;;;;;6.82;100.00;99431.31;5013849;56;1141619;-70
2022/12/22 19:47:03;;;;;;;22.65;15.18;;;;;;;6.83;100.00;99446.96;4951933;58;1140986;-74
2022/12/22 19:52:10;;;;;;;22.73;14.03;;;;;;;6.84;100.00;99450.42;4962251;58;1141116;-71
2022/12/22 19:57:20;;;;;;;17.87;12.18;;;;;;;6.82;100.00;99453.17;4982242;58;1141000;-75
2022/12/22 20:02:29;;;;;;;21.83;14.27;;;;;;;6.82;100.00;99458.42;4963390;57;1141028;-73
2022/12/22 20:07:35;;;;;;;24.17;15.57;;;;;;;6.80;100.00;99451.62;4982559;56;1140963;-71
2022/12/22 20:12:48;;;;;;;24.27;14.67;;;;;;;6.81;100.00;99448.88;5065201;56;1141213;-73
2022/12/22 20:17:52;;;;;;;20.77;13.57;;;;;;;6.82;100.00;99462.84;5018103;56;1141367;-70
2022/12/22 20:23:16;;;;;;;22.47;14.23;;;;;;;6.82;100.00;99465.47;4975040;57;1141055;-73
2022/12/22 20:28:26;;;;;;;17.60;13.20;;;;;;;6.84;100.00;99463.56;5010320;56;1141067;-71
2022/12/22 20:33:33;;;;;;;16.03;10.90;;;;;;;6.87;100.00;99473.37;4983298;57;1140996;-76
2022/12/22 20:38:42;;;;;;;13.67;10.40;;;;;;;6.88;100.00;99474.17;4972730;56;1140996;-74
2022/12/22 20:43:49;;;;;;;12.00;8.63;;;;;;;6.88;100.00;99480.27;5015768;56;1140931;-69
2022/12/22 20:49:01;;;;;;;13.37;8.90;;;;;;;6.86;100.00;99482.20;5016892;56;1139058;-68
2022/12/22 20:54:09;;;;;;;9.98;6.83;;;;;;;6.87;100.00;99486.51;5033467;56;1138984;-72
2022/12/22 20:59:23;;;;;;;9.88;7.72;;;;;;;6.87;100.00;99498.81;5012582;56;1137038;-72
2022/12/22 21:04:29;;;;;;;8.77;6.47;;;;;;;6.86;100.00;99506.34;4961964;56;1136800;-74
2022/12/22 21:09:35;;;;;;;9.43;7.10;;;;;;;6.86;100.00;99508.97;5078120;56;1136903;-71
2022/12/22 21:14:43;;;;;;;7.57;6.77;;;;;;;6.87;100.00;99518.05;5102993;56;1136808;-73
2022/12/22 21:19:49;;;;;;;6.63;5.70;;;;;;;6.87;100.00;99529.03;5067761;56;1137071;-72
2022/12/22 21:25:00;;;;;;;8.50;6.13;;;;;;;6.85;100.00;99533.57;5068129;56;1137032;-71
2022/12/22 21:30:06;;;;;;;7.87;5.80;;;;;;;6.84;100.00;99538.47;5078591;56;1137141;-75
2022/12/22 21:35:17;;;;;;;8.03;5.03;;;;;;;6.84;100.00;99535.84;5048690;56;1136810;-71
2022/12/22 21:40:27;;;;;;;9.73;5.37;;;;;;;6.81;100.00;99529.50;5047719;56;1136959;-74
2022/12/22 21:45:33;;;;;;;7.77;4.77;;;;;;;6.77;100.00;99538.57;5068911;56;1136746;-71
2022/12/22 21:50:39;;;;;;;5.43;4.93;;;;;;;6.70;100.00;99540.38;5052558;56;1136776;-71
2022/12/22 21:55:45;;;;;;;5.20;4.07;;;;;;;6.69;100.00;99549.69;5043801;56;1136772;-73
2022/12/22 22:00:51;;;;;;;5.43;4.93;;;;;;;6.67;100.00;99541.08;5062700;57;1136823;-71
2022/12/22 22:05:57;;;;;;;5.03;4.40;;;;;;;6.66;100.00;99560.42;5042923;56;1136991;-70
2022/12/22 22:11:03;;;;;;;5.10;4.53;;;;;;;6.63;100.00;99568.54;5043479;56;1136973;-71
2022/12/22 22:16:10;;;;;;;6.37;4.67;;;;;;;6.59;100.00;99565.78;5063185;56;1136733;-73
2022/12/22 22:21:17;;;;;;;6.17;4.80;;;;;;;6.55;100.00;99571.77;5037515;56;1136856;-73
2022/12/22 22:26:23;;;;;;;7.97;5.50;;;;;;;6.45;100.00;99561.58;5065929;56;1136864;-73
2022/12/22 22:31:28;;;;;;;17.47;7.07;;;;;;;6.42;100.00;99567.53;5057186;57;1137058;-69
2022/12/22 22:36:34;;;;;;;19.97;7.80;;;;;;;6.37;100.00;99570.52;5037021;57;1139043;-72
2022/12/22 22:41:40;;;;;;;16.97;6.53;;;;;;;6.29;100.00;99573.71;5036757;57;1138997;-71
2022/12/22 22:46:46;;;;;;;17.47;6.60;;;;;;;6.23;100.00;99574.19;5056495;57;1139163;-70
2022/12/22 22:51:52;;;;;;;9.93;5.60;;;;;;;6.19;100.00;99584.55;5108266;56;1138787;-73
2022/12/22 22:56:57;;;;;;;20.10;8.63;;;;;;;6.16;100.00;99595.75;5121592;56;1136652;-71
2022/12/22 23:02:03;;;;;;;10.80;8.65;;;;;;;6.12;100.00;99611.35;5121736;56;1139053;-73
2022/12/22 23:07:10;;;;;;;9.53;7.63;;;;;;;6.07;100.00;99595.13;5129180;56;1138875;-73
2022/12/22 23:12:16;;;;;;;10.35;8.70;;;;;;;5.99;100.00;99593.05;5038152;56;1136798;-72
2022/12/22 23:17:21;;;;;;;10.70;7.83;;;;;;;5.91;100.00;99592.31;5037507;56;1138985;-74
2022/12/22 23:22:27;;;;;;;11.40;7.73;;;;;;;5.85;100.00;99591.41;5075677;56;1138852;-73
2022/12/22 23:27:33;;;;;;;9.03;6.87;;;;;;;5.80;100.00;99575.66;5122030;56;1138767;-73
2022/12/22 23:32:40;;;;;;;10.13;7.73;;;;;;;5.75;100.00;99585.16;5101581;56;1136760;-73
2022/12/22 23:37:45;;;;;;;10.47;8.70;;;;;;;5.70;100.00;99577.25;5057726;57;1139006;-72
2022/12/22 23:42:51;;;;;;;13.83;9.80;;;;;;;5.66;100.00;99573.53;5038034;57;1138825;-71
2022/12/22 23:47:57;;;;;;;15.70;11.13;;;;;;;5.62;100.00;99569.95;5037745;57;1138846;-73
2022/12/22 23:53:03;;;;;;;15.17;10.93;;;;;;;5.57;100.00;99578.62;5037811;57;1141028;-74
2022/12/22 23:58:09;;;;;;;15.15;10.35;;;;;;;5.52;100.00;99591.21;5057461;57;1140944;-70
